createdAt,value
2017-07-24T00:01:38.062Z,3.00
2017-07-24T00:04:07.263Z,3.00
2017-07-24T00:06:36.454Z,2.90
2017-07-24T00:09:04.220Z,2.60
2017-07-24T00:11:32.685Z,2.60
2017-07-24T00:14:01.171Z,2.40
2017-07-24T00:16:29.643Z,2.77
2017-07-24T00:18:58.115Z,2.73
2017-07-24T00:21:26.534Z,3.17
2017-07-24T00:23:55.747Z,3.20
2017-07-24T00:26:24.979Z,3.10
2017-07-24T00:28:53.411Z,2.70
2017-07-24T00:31:21.890Z,2.77
2017-07-24T00:33:50.323Z,3.27
2017-07-24T00:36:18.755Z,3.23
2017-07-24T00:38:47.180Z,3.20
2017-07-24T00:41:15.615Z,3.50
2017-07-24T00:43:44.130Z,3.00
2017-07-24T00:46:12.553Z,3.23
2017-07-24T00:48:41.684Z,3.57
2017-07-24T00:51:10.895Z,3.30
2017-07-24T00:53:40.094Z,3.20
2017-07-24T00:56:09.275Z,3.50
2017-07-24T00:58:37.711Z,2.87
2017-07-24T01:01:06.191Z,3.30
2017-07-24T01:03:35.291Z,3.20
2017-07-24T01:06:03.711Z,3.10
2017-07-24T01:08:32.135Z,3.33
2017-07-24T01:11:00.580Z,3.30
2017-07-24T01:13:29.010Z,3.50
2017-07-24T01:15:57.434Z,3.90
2017-07-24T01:18:25.887Z,3.73
2017-07-24T01:20:54.335Z,2.77
2017-07-24T01:23:22.758Z,3.03
2017-07-24T01:25:51.203Z,3.03
2017-07-24T01:28:19.623Z,3.37
2017-07-24T01:30:48.082Z,3.13
2017-07-24T01:33:16.500Z,3.47
2017-07-24T01:35:45.011Z,3.13
2017-07-24T01:38:14.198Z,2.90
2017-07-24T01:40:42.639Z,3.00
2017-07-24T01:43:11.078Z,3.03
2017-07-24T01:45:40.275Z,3.17
2017-07-24T01:48:09.086Z,3.17
2017-07-24T01:50:37.535Z,3.50
2017-07-24T01:53:06.718Z,3.30
2017-07-24T01:55:35.331Z,3.30
2017-07-24T01:58:04.279Z,3.53
2017-07-24T02:00:32.364Z,3.70
2017-07-24T02:03:00.787Z,3.60
2017-07-24T02:05:28.884Z,3.10
2017-07-24T02:07:57.443Z,4.03
2017-07-24T02:10:25.883Z,3.67
2017-07-24T02:12:54.383Z,4.10
2017-07-24T02:15:22.818Z,3.67
2017-07-24T02:17:51.299Z,3.60
2017-07-24T02:20:19.716Z,3.87
2017-07-24T02:22:48.846Z,3.47
2017-07-24T02:25:18.037Z,3.30
2017-07-24T02:27:47.258Z,3.80
2017-07-24T02:30:15.698Z,3.33
2017-07-24T02:32:44.122Z,3.77
2017-07-24T02:35:12.559Z,3.50
2017-07-24T02:37:40.969Z,3.30
2017-07-24T02:40:10.074Z,3.63
2017-07-24T02:42:38.509Z,3.53
2017-07-24T02:45:07.692Z,4.50
2017-07-24T02:47:36.124Z,3.87
2017-07-24T02:50:05.240Z,4.47
2017-07-24T02:52:33.699Z,3.37
2017-07-24T02:55:02.907Z,4.30
2017-07-24T02:57:32.162Z,4.07
2017-07-24T03:00:00.590Z,3.77
2017-07-24T03:02:29.787Z,3.67
2017-07-24T03:04:58.223Z,4.00
2017-07-24T03:07:26.815Z,4.40
2017-07-24T03:09:55.254Z,3.73
2017-07-24T03:12:23.687Z,3.70
2017-07-24T03:14:52.782Z,4.20
2017-07-24T03:17:21.407Z,4.43
2017-07-24T03:19:49.835Z,3.90
2017-07-24T03:22:18.263Z,4.20
2017-07-24T03:24:46.695Z,3.83
2017-07-24T03:27:15.128Z,4.27
2017-07-24T03:29:43.574Z,4.37
2017-07-24T03:32:12.707Z,4.40
2017-07-24T03:34:41.142Z,4.30
2017-07-24T03:37:09.662Z,3.40
2017-07-24T03:39:38.864Z,4.00
2017-07-24T03:42:08.079Z,4.30
2017-07-24T03:44:36.512Z,4.50
2017-07-24T03:47:04.923Z,4.37
2017-07-24T03:49:34.118Z,4.33
2017-07-24T03:52:03.329Z,4.27
2017-07-24T03:54:32.522Z,4.00
2017-07-24T03:57:01.710Z,3.87
2017-07-24T03:59:30.915Z,4.03
2017-07-24T04:02:00.096Z,4.33
2017-07-24T04:04:28.535Z,4.00
2017-07-24T04:06:56.967Z,3.90
2017-07-24T04:09:25.407Z,4.30
2017-07-24T04:11:53.829Z,3.87
2017-07-24T04:14:23.041Z,3.97
2017-07-24T04:16:52.214Z,3.90
2017-07-24T04:19:20.643Z,3.90
2017-07-24T04:21:49.215Z,4.40
2017-07-24T04:24:17.655Z,4.70
2017-07-24T04:26:46.086Z,4.57
2017-07-24T04:29:14.525Z,4.17
2017-07-24T04:31:43.145Z,3.80
2017-07-24T04:34:12.335Z,4.37
2017-07-24T04:36:40.787Z,3.67
2017-07-24T04:39:09.901Z,4.50
2017-07-24T04:41:38.343Z,4.60
2017-07-24T04:44:06.764Z,3.83
2017-07-24T04:46:35.198Z,3.60
2017-07-24T04:49:03.623Z,4.30
2017-07-24T04:51:32.079Z,4.10
2017-07-24T04:54:00.489Z,4.27
2017-07-24T04:56:29.707Z,4.97
2017-07-24T04:58:59.022Z,4.57
2017-07-24T05:01:27.554Z,4.17
2017-07-24T05:03:55.977Z,4.03
2017-07-24T05:06:24.409Z,4.10
2017-07-24T05:08:53.731Z,3.97
2017-07-24T05:11:22.189Z,4.00
2017-07-24T05:13:51.355Z,3.60
2017-07-24T05:16:19.783Z,4.07
2017-07-24T05:18:48.908Z,4.27
2017-07-24T05:21:18.123Z,3.50
2017-07-24T05:23:46.629Z,3.40
2017-07-24T05:26:15.055Z,3.60
2017-07-24T05:28:43.500Z,3.83
2017-07-24T05:31:12.612Z,2.93
2017-07-24T05:33:41.033Z,3.30
2017-07-24T05:36:10.230Z,2.97
2017-07-24T05:38:39.398Z,3.13
2017-07-24T05:41:07.846Z,2.77
2017-07-24T05:43:37.814Z,3.10
2017-07-24T05:46:06.251Z,3.20
2017-07-24T05:48:34.671Z,2.80
2017-07-24T05:51:03.097Z,2.50
2017-07-24T05:53:32.230Z,2.10
2017-07-24T05:56:00.690Z,2.50
2017-07-24T05:58:29.245Z,1.93
2017-07-24T06:00:57.664Z,2.20
2017-07-24T06:03:26.102Z,2.37
2017-07-24T06:05:55.300Z,2.40
2017-07-24T06:08:24.490Z,2.67
2017-07-24T06:10:53.699Z,2.40
2017-07-24T06:13:22.918Z,2.00
2017-07-24T06:15:51.363Z,2.53
2017-07-24T06:18:19.128Z,2.63
2017-07-24T06:20:47.642Z,2.30
2017-07-24T06:23:16.073Z,2.30
2017-07-24T06:25:44.512Z,2.23
2017-07-24T06:28:12.967Z,2.70
2017-07-24T06:30:42.155Z,2.20
2017-07-24T06:33:10.595Z,2.30
2017-07-24T06:35:39.031Z,1.87
2017-07-24T06:38:08.222Z,2.20
2017-07-24T06:40:37.492Z,2.43
2017-07-24T06:43:05.932Z,2.10
2017-07-24T06:45:34.399Z,2.20
2017-07-24T06:48:03.602Z,2.10
2017-07-24T06:50:32.767Z,2.10
2017-07-24T06:53:01.226Z,2.90
2017-07-24T06:55:31.359Z,2.40
2017-07-24T06:57:59.995Z,2.27
2017-07-24T07:00:29.182Z,2.33
2017-07-24T07:02:57.675Z,2.30
2017-07-24T07:05:26.866Z,2.10
2017-07-24T07:07:56.170Z,2.20
2017-07-24T07:10:25.531Z,2.73
2017-07-24T07:12:53.967Z,2.07
2017-07-24T07:15:22.431Z,1.93
2017-07-24T07:17:50.840Z,2.20
2017-07-24T07:20:19.278Z,1.80
2017-07-24T07:22:47.686Z,2.20
2017-07-24T07:25:16.123Z,1.93
2017-07-24T07:27:44.550Z,1.90
2017-07-24T07:30:13.659Z,2.20
2017-07-24T07:32:42.143Z,2.10
2017-07-24T07:35:10.584Z,1.60
2017-07-24T07:37:39.636Z,1.70
2017-07-24T07:40:08.747Z,1.70
2017-07-24T07:42:37.179Z,1.93
2017-07-24T07:45:06.289Z,1.93
2017-07-24T07:47:34.734Z,1.60
2017-07-24T07:50:03.201Z,2.37
2017-07-24T07:52:31.713Z,2.30
2017-07-24T07:55:00.198Z,2.20
2017-07-24T07:57:31.687Z,2.13
2017-07-24T08:00:00.115Z,2.00
2017-07-24T08:02:28.578Z,2.07
2017-07-24T08:04:56.997Z,1.83
2017-07-24T08:07:25.430Z,2.17
2017-07-24T08:09:53.856Z,2.20
2017-07-24T08:12:22.107Z,1.90
2017-07-24T08:14:50.506Z,2.43
2017-07-24T08:17:19.710Z,2.17
2017-07-24T08:19:48.919Z,2.67
2017-07-24T08:22:18.129Z,2.43
2017-07-24T08:24:46.563Z,2.40
2017-07-24T08:27:14.999Z,1.80
2017-07-24T08:29:43.562Z,1.90
2017-07-24T08:32:12.771Z,1.23
2017-07-24T08:34:42.038Z,1.20
2017-07-24T08:37:10.458Z,1.70
2017-07-24T08:39:40.374Z,1.40
2017-07-24T08:42:08.837Z,1.17
2017-07-24T08:44:38.259Z,0.90
2017-07-24T08:47:06.712Z,1.23
2017-07-24T08:49:35.126Z,0.90
2017-07-24T08:52:03.554Z,0.70
2017-07-24T08:54:31.984Z,0.80
2017-07-24T08:57:00.408Z,0.70
2017-07-24T08:59:28.826Z,0.73
2017-07-24T09:01:57.239Z,1.30
2017-07-24T09:04:25.806Z,0.93
2017-07-24T09:06:54.918Z,0.83
2017-07-24T09:09:23.363Z,0.90
2017-07-24T09:11:51.805Z,0.60
2017-07-24T09:14:20.260Z,0.80
2017-07-24T09:16:48.703Z,1.03
2017-07-24T09:19:17.830Z,0.80
2017-07-24T09:21:46.247Z,0.60
2017-07-24T09:24:14.683Z,1.00
2017-07-24T09:26:43.098Z,1.00
2017-07-24T09:29:11.543Z,0.70
2017-07-24T09:31:40.364Z,0.63
2017-07-24T09:34:08.803Z,0.87
2017-07-24T09:36:37.222Z,0.70
2017-07-24T09:39:05.317Z,0.90
2017-07-24T09:41:33.752Z,0.67
2017-07-24T09:44:02.180Z,0.70
2017-07-24T09:46:30.700Z,0.70
2017-07-24T09:48:59.118Z,0.77
2017-07-24T09:51:27.951Z,0.73
2017-07-24T09:53:56.391Z,0.63
2017-07-24T09:56:24.814Z,0.73
2017-07-24T09:58:53.250Z,0.90
2017-07-24T10:01:21.677Z,0.60
2017-07-24T10:03:50.196Z,0.80
2017-07-24T10:06:18.612Z,0.70
2017-07-24T10:08:47.045Z,0.83
2017-07-24T10:11:15.482Z,0.60
2017-07-24T10:13:43.901Z,1.00
2017-07-24T10:16:12.344Z,1.17
2017-07-24T10:18:40.778Z,0.60
2017-07-24T10:21:09.206Z,0.80
2017-07-24T10:23:37.640Z,1.10
2017-07-24T10:26:06.149Z,1.07
2017-07-24T10:28:34.574Z,0.70
2017-07-24T10:31:02.992Z,0.63
2017-07-24T10:33:31.453Z,0.70
2017-07-24T10:35:59.930Z,0.60
2017-07-24T10:38:28.372Z,0.60
2017-07-24T10:40:56.819Z,0.70
2017-07-24T10:43:25.252Z,0.77
2017-07-24T10:45:54.394Z,0.60
2017-07-24T10:48:22.816Z,0.90
2017-07-24T10:50:51.249Z,0.87
2017-07-24T10:53:19.718Z,0.77
2017-07-24T10:55:48.153Z,0.80
2017-07-24T10:58:17.255Z,0.90
2017-07-24T11:00:45.710Z,0.80
2017-07-24T11:03:14.147Z,1.10
2017-07-24T11:05:42.582Z,0.80
2017-07-24T11:08:11.030Z,0.60
2017-07-24T11:10:39.463Z,1.00
2017-07-24T11:13:08.006Z,0.80
2017-07-24T11:15:36.511Z,1.20
2017-07-24T11:18:04.951Z,1.20
2017-07-24T11:20:34.067Z,0.90
2017-07-24T11:23:02.499Z,1.10
2017-07-24T11:25:30.919Z,1.07
2017-07-24T11:27:59.355Z,1.23
2017-07-24T11:30:27.775Z,1.10
2017-07-24T11:32:56.247Z,1.10
2017-07-24T11:35:24.667Z,1.40
2017-07-24T11:37:53.102Z,1.10
2017-07-24T11:40:21.553Z,1.40
2017-07-24T11:42:49.994Z,1.73
2017-07-24T11:45:18.474Z,1.30
2017-07-24T11:47:46.910Z,1.50
2017-07-24T11:50:15.362Z,1.20
2017-07-24T11:52:43.771Z,1.50
2017-07-24T11:55:12.223Z,1.40
2017-07-24T11:57:40.663Z,1.10
2017-07-24T12:00:09.096Z,1.10
2017-07-24T12:02:37.523Z,1.10
2017-07-24T12:05:05.960Z,0.90
2017-07-24T12:07:34.368Z,1.07
2017-07-24T12:10:02.807Z,0.90
2017-07-24T12:12:31.921Z,1.20
2017-07-24T12:15:00.366Z,1.00
2017-07-24T12:17:28.787Z,0.93
2017-07-24T12:19:57.326Z,1.00
2017-07-24T12:22:25.769Z,1.27
2017-07-24T12:24:54.302Z,0.90
2017-07-24T12:27:22.783Z,1.10
2017-07-24T12:29:51.238Z,1.77
2017-07-24T12:32:19.697Z,1.50
2017-07-24T12:34:48.140Z,1.30
2017-07-24T12:37:16.575Z,2.00
2017-07-24T12:39:45.020Z,1.60
2017-07-24T12:42:13.442Z,1.33
2017-07-24T12:44:41.880Z,1.50
2017-07-24T12:47:10.399Z,1.67
2017-07-24T12:49:38.822Z,1.20
2017-07-24T12:52:07.937Z,1.50
2017-07-24T12:54:36.372Z,1.70
2017-07-24T12:57:04.825Z,1.40
2017-07-24T12:59:33.254Z,1.20
2017-07-24T13:02:01.706Z,1.20
2017-07-24T13:04:30.179Z,1.30
2017-07-24T13:06:58.635Z,1.70
2017-07-24T13:09:27.054Z,1.20
2017-07-24T13:11:55.496Z,1.27
2017-07-24T13:14:23.911Z,1.40
2017-07-24T13:16:52.400Z,1.30
2017-07-24T13:19:20.834Z,1.17
2017-07-24T13:21:49.303Z,0.93
2017-07-24T13:24:17.719Z,1.00
2017-07-24T13:26:46.183Z,1.30
2017-07-24T13:29:14.603Z,1.13
2017-07-24T13:31:43.057Z,1.47
2017-07-24T13:34:12.179Z,1.20
2017-07-24T13:36:40.642Z,1.00
2017-07-24T13:39:09.053Z,0.83
2017-07-24T13:41:38.181Z,1.13
2017-07-24T13:44:06.637Z,1.00
2017-07-24T13:46:35.063Z,1.03
2017-07-24T13:49:03.527Z,0.80
2017-07-24T13:51:32.005Z,0.97
2017-07-24T13:54:00.439Z,0.80
2017-07-24T13:56:28.894Z,1.00
2017-07-24T13:58:57.351Z,1.00
2017-07-24T14:01:25.758Z,0.83
2017-07-24T14:03:54.218Z,1.03
2017-07-24T14:06:22.650Z,1.03
2017-07-24T14:08:51.095Z,0.90
2017-07-24T14:11:19.515Z,0.77
2017-07-24T14:13:47.951Z,1.00
2017-07-24T14:16:16.454Z,0.90
2017-07-24T14:18:44.922Z,0.90
2017-07-24T14:21:13.357Z,0.77
2017-07-24T14:23:41.795Z,0.70
2017-07-24T14:26:10.239Z,0.90
2017-07-24T14:28:38.674Z,0.93
2017-07-24T14:31:07.110Z,0.80
2017-07-24T14:33:35.563Z,0.90
2017-07-24T14:36:04.075Z,0.70
2017-07-24T14:38:33.282Z,1.00
2017-07-24T14:41:02.619Z,0.70
2017-07-24T14:43:31.075Z,1.20
2017-07-24T14:46:00.180Z,0.90
2017-07-24T14:48:29.284Z,1.67
2017-07-24T14:50:57.741Z,1.33
2017-07-24T14:53:26.930Z,2.07
2017-07-24T14:55:56.138Z,1.70
2017-07-24T14:58:25.323Z,2.27
2017-07-24T15:00:53.766Z,1.77
2017-07-24T15:03:22.187Z,1.37
2017-07-24T15:05:50.638Z,1.03
2017-07-24T15:08:19.050Z,1.10
2017-07-24T15:10:48.402Z,1.00
2017-07-24T15:13:16.832Z,0.90
2017-07-24T15:15:45.274Z,1.10
2017-07-24T15:18:13.714Z,1.20
2017-07-24T15:20:42.932Z,1.47
2017-07-24T15:23:11.340Z,1.17
2017-07-24T15:25:39.811Z,1.30
2017-07-24T15:28:08.401Z,1.10
2017-07-24T15:30:36.842Z,0.90
2017-07-24T15:33:06.106Z,1.23
2017-07-24T15:35:34.748Z,1.20
2017-07-24T15:38:03.209Z,1.00
2017-07-24T15:40:32.414Z,1.10
2017-07-24T15:43:00.894Z,1.07
2017-07-24T15:45:30.094Z,1.43
2017-07-24T15:47:59.291Z,1.60
2017-07-24T15:50:28.503Z,1.30
2017-07-24T15:52:56.951Z,1.40
2017-07-24T15:55:25.398Z,1.50
2017-07-24T15:57:53.850Z,1.40
2017-07-24T16:00:22.304Z,1.50
2017-07-24T16:02:51.027Z,1.50
2017-07-24T16:05:20.114Z,1.43
2017-07-24T16:07:48.655Z,1.23
2017-07-24T16:10:17.088Z,1.80
2017-07-24T16:12:45.551Z,1.73
2017-07-24T16:15:13.975Z,1.70
2017-07-24T16:17:42.407Z,1.80
2017-07-24T16:20:10.951Z,1.23
2017-07-24T16:22:39.382Z,1.60
2017-07-24T16:25:07.920Z,1.50
2017-07-24T16:27:36.370Z,1.43
2017-07-24T16:30:04.943Z,1.60
2017-07-24T16:32:33.532Z,1.30
2017-07-24T16:35:01.962Z,1.77
2017-07-24T16:37:31.093Z,1.43
2017-07-24T16:40:00.282Z,1.20
2017-07-24T16:42:29.487Z,1.10
2017-07-24T16:44:58.684Z,1.33
2017-07-24T16:47:27.888Z,1.10
2017-07-24T16:49:57.069Z,1.50
2017-07-24T16:52:25.530Z,1.20
2017-07-24T16:54:53.995Z,1.20
2017-07-24T16:57:22.449Z,1.17
2017-07-24T16:59:50.886Z,1.70
2017-07-24T17:02:19.325Z,1.33
2017-07-24T17:04:47.765Z,1.23
2017-07-24T17:07:16.981Z,1.60
2017-07-24T17:09:46.159Z,1.23
2017-07-24T17:12:15.310Z,1.50
2017-07-24T17:14:43.759Z,1.53
2017-07-24T17:17:12.972Z,1.20
2017-07-24T17:19:42.079Z,1.23
2017-07-24T17:22:10.515Z,1.30
2017-07-24T17:24:39.027Z,1.47
2017-07-24T17:27:07.736Z,1.27
2017-07-24T17:29:36.123Z,1.30
2017-07-24T17:32:04.549Z,1.30
2017-07-24T17:34:33.750Z,1.20
2017-07-24T17:37:02.950Z,1.33
2017-07-24T17:39:32.181Z,1.30
2017-07-24T17:42:00.649Z,1.30
2017-07-24T17:44:32.853Z,1.03
2017-07-24T17:47:01.275Z,1.00
2017-07-24T17:49:29.711Z,1.40
2017-07-24T17:51:59.603Z,1.23
2017-07-24T17:54:28.039Z,1.23
2017-07-24T17:56:56.569Z,1.17
2017-07-24T17:59:25.028Z,1.30
2017-07-24T18:01:54.219Z,1.20
2017-07-24T18:04:22.669Z,0.90
2017-07-24T18:06:51.137Z,1.23
2017-07-24T18:09:19.566Z,1.03
2017-07-24T18:11:48.011Z,1.30
2017-07-24T18:14:16.471Z,1.27
2017-07-24T18:16:44.947Z,1.40
2017-07-24T18:19:13.214Z,1.50
2017-07-24T18:21:41.634Z,2.67
2017-07-24T18:24:09.908Z,1.70
2017-07-24T18:26:38.343Z,1.87
2017-07-24T18:29:07.487Z,1.43
2017-07-24T18:31:35.915Z,1.90
2017-07-24T18:34:05.119Z,1.80
2017-07-24T18:36:34.508Z,1.70
2017-07-24T18:39:03.050Z,1.90
2017-07-24T18:41:32.174Z,1.87
2017-07-24T18:44:00.635Z,1.77
2017-07-24T18:46:29.063Z,2.00
2017-07-24T18:48:58.308Z,1.80
2017-07-24T18:51:26.738Z,1.80
2017-07-24T18:53:55.151Z,1.33
2017-07-24T18:56:23.627Z,1.83
2017-07-24T18:58:52.223Z,1.93
2017-07-24T19:01:20.761Z,1.60
2017-07-24T19:03:49.192Z,1.80
2017-07-24T19:06:17.649Z,1.93
2017-07-24T19:08:47.085Z,2.27
2017-07-24T19:11:15.554Z,2.07
2017-07-24T19:13:43.982Z,2.00
2017-07-24T19:16:12.433Z,1.90
2017-07-24T19:18:40.868Z,1.83
2017-07-24T19:21:10.087Z,1.70
2017-07-24T19:23:38.560Z,1.97
2017-07-24T19:26:07.764Z,2.10
2017-07-24T19:28:36.981Z,1.90
2017-07-24T19:31:05.424Z,2.50
2017-07-24T19:33:33.921Z,2.33
2017-07-24T19:36:03.135Z,2.17
2017-07-24T19:38:31.597Z,2.30
2017-07-24T19:41:00.947Z,2.40
2017-07-24T19:43:29.364Z,2.27
2017-07-24T19:45:58.599Z,2.40
2017-07-24T19:48:27.800Z,2.10
2017-07-24T19:50:56.255Z,1.90
2017-07-24T19:53:24.691Z,2.23
2017-07-24T19:55:53.138Z,1.83
2017-07-24T19:58:22.356Z,1.90
2017-07-24T20:00:50.810Z,2.33
2017-07-24T20:03:20.018Z,2.90
2017-07-24T20:05:49.218Z,1.83
2017-07-24T20:08:18.434Z,2.67
2017-07-24T20:10:46.876Z,1.90
2017-07-24T20:13:15.335Z,2.10
2017-07-24T20:15:43.764Z,2.60
2017-07-24T20:18:12.972Z,2.30
2017-07-24T20:20:41.383Z,2.30
2017-07-24T20:23:09.831Z,2.00
2017-07-24T20:25:38.263Z,2.60
2017-07-24T20:28:06.702Z,3.07
2017-07-24T20:30:35.167Z,2.63
2017-07-24T20:33:04.388Z,2.63
2017-07-24T20:35:32.806Z,2.53
2017-07-24T20:38:01.302Z,2.30
2017-07-24T20:40:29.767Z,1.97
2017-07-24T20:42:58.204Z,2.50
2017-07-24T20:45:26.629Z,2.07
2017-07-24T20:47:55.765Z,2.70
2017-07-24T20:50:24.946Z,2.70
2017-07-24T20:52:54.179Z,2.70
2017-07-24T20:55:22.627Z,2.43
2017-07-24T20:57:51.091Z,2.70
2017-07-24T21:00:19.522Z,2.30
2017-07-24T21:02:48.702Z,2.33
2017-07-24T21:05:17.834Z,2.63
2017-07-24T21:07:46.251Z,2.70
2017-07-24T21:10:14.743Z,2.17
2017-07-24T21:12:43.171Z,2.40
2017-07-24T21:15:11.619Z,2.70
2017-07-24T21:17:40.046Z,3.00
2017-07-24T21:20:08.644Z,2.20
2017-07-24T21:22:37.755Z,2.53
2017-07-24T21:25:06.252Z,2.50
2017-07-24T21:27:34.701Z,2.53
2017-07-24T21:30:03.252Z,2.73
2017-07-24T21:32:32.404Z,2.93
2017-07-24T21:35:00.865Z,3.10
2017-07-24T21:37:29.422Z,2.70
2017-07-24T21:39:57.879Z,2.90
2017-07-24T21:42:27.018Z,2.90
2017-07-24T21:44:55.444Z,3.27
2017-07-24T21:47:23.873Z,2.90
2017-07-24T21:49:52.294Z,3.23
2017-07-24T21:52:20.867Z,3.63
2017-07-24T21:54:49.291Z,3.33
2017-07-24T21:57:17.730Z,3.13
2017-07-24T21:59:46.181Z,3.50
2017-07-24T22:02:14.617Z,3.63
2017-07-24T22:04:43.049Z,3.40
2017-07-24T22:07:11.491Z,3.10
2017-07-24T22:09:39.910Z,3.40
2017-07-24T22:12:09.799Z,3.30
2017-07-24T22:14:38.992Z,3.17
2017-07-24T22:17:08.215Z,3.23
2017-07-24T22:19:37.396Z,2.93
2017-07-24T22:22:06.611Z,3.17
2017-07-24T22:24:35.799Z,3.10
2017-07-24T22:27:05.047Z,2.90
2017-07-24T22:29:33.468Z,3.00
2017-07-24T22:32:01.907Z,3.40
2017-07-24T22:34:30.323Z,3.30
2017-07-24T22:36:58.743Z,3.07
2017-07-24T22:39:27.184Z,3.17
2017-07-24T22:41:55.594Z,3.37
2017-07-24T22:44:24.075Z,3.30
2017-07-24T22:46:53.272Z,3.50
2017-07-24T22:49:22.467Z,3.57
2017-07-24T22:51:51.731Z,3.40
2017-07-24T22:54:20.166Z,3.47
2017-07-24T22:56:48.586Z,3.10
2017-07-24T22:59:17.715Z,3.80
2017-07-24T23:01:46.147Z,3.33
2017-07-24T23:04:14.674Z,3.90
2017-07-24T23:06:43.090Z,3.30
2017-07-24T23:09:11.667Z,3.60
2017-07-24T23:11:40.855Z,3.60
2017-07-24T23:14:10.070Z,3.40
2017-07-24T23:16:38.514Z,3.80
2017-07-24T23:19:08.470Z,3.53
2017-07-24T23:21:36.898Z,3.57
2017-07-24T23:24:05.343Z,3.60
2017-07-24T23:26:33.761Z,3.90
2017-07-24T23:29:02.210Z,3.50
2017-07-24T23:31:30.630Z,3.40
2017-07-24T23:33:59.070Z,3.60
2017-07-24T23:36:27.490Z,3.73
2017-07-24T23:38:55.928Z,3.93
2017-07-24T23:41:24.343Z,4.67
2017-07-24T23:43:52.770Z,3.80
2017-07-24T23:46:21.970Z,4.07
2017-07-24T23:48:51.171Z,4.23
2017-07-24T23:51:20.355Z,3.93
2017-07-24T23:53:48.773Z,3.53
2017-07-24T23:56:17.219Z,4.70
2017-07-24T23:58:46.403Z,4.10
